createdAt,value
2023-01-07T00:00:15.706Z,99861.98
2023-01-07T00:02:20.656Z,99860.98
2023-01-07T00:04:26.585Z,99859.85
2023-01-07T00:06:34.582Z,99863.14
2023-01-07T00:08:41.480Z,99863.94
2023-01-07T00:10:46.615Z,99864.14
2023-01-07T00:12:51.596Z,99862.44
2023-01-07T00:14:56.374Z,99862.29
2023-01-07T00:17:01.267Z,99859.31
2023-01-07T00:19:07.991Z,99865.13
2023-01-07T00:21:15.658Z,99862.36
2023-01-07T00:23:20.361Z,99863.72
2023-01-07T00:25:25.414Z,99867.57
2023-01-07T00:27:30.275Z,99867.96
2023-01-07T00:29:35.331Z,99863.90
2023-01-07T00:31:41.403Z,99867.20
2023-01-07T00:33:47.160Z,99870.39
2023-01-07T00:36:00.270Z,99868.11
2023-01-07T00:38:05.492Z,99871.77
2023-01-07T00:40:13.892Z,99872.11
2023-01-07T00:42:18.931Z,99872.10
2023-01-07T00:44:23.678Z,99869.80
2023-01-07T00:46:28.364Z,99874.31
2023-01-07T00:48:33.425Z,99873.98
2023-01-07T00:50:39.556Z,99875.83
2023-01-07T00:52:44.232Z,99876.06
2023-01-07T00:54:49.274Z,99873.23
2023-01-07T00:56:54.001Z,99880.73
2023-01-07T00:58:59.552Z,99879.71
2023-01-07T01:01:05.007Z,99884.96
2023-01-07T01:03:10.632Z,99878.21
2023-01-07T01:05:15.649Z,99880.90
2023-01-07T01:07:20.431Z,99881.23
2023-01-07T01:09:25.214Z,99883.55
2023-01-07T01:11:30.045Z,99889.66
2023-01-07T01:13:35.253Z,99892.11
2023-01-07T01:15:43.404Z,99897.80
2023-01-07T01:17:50.303Z,99900.74
2023-01-07T01:19:55.084Z,99900.98
2023-01-07T01:22:00.000Z,99899.58
2023-01-07T01:24:04.901Z,99904.36
2023-01-07T01:26:11.889Z,99903.48
2023-01-07T01:28:16.835Z,99906.67
2023-01-07T01:30:21.681Z,99907.85
2023-01-07T01:32:27.156Z,99910.46
2023-01-07T01:34:32.971Z,99911.19
2023-01-07T01:36:38.079Z,99911.74
2023-01-07T01:38:43.154Z,99911.41
2023-01-07T01:40:48.085Z,99913.14
2023-01-07T01:42:52.746Z,99908.60
2023-01-07T01:45:00.239Z,99912.00
2023-01-07T01:47:22.662Z,99914.67
2023-01-07T01:49:31.183Z,99917.80
2023-01-07T01:51:41.610Z,99916.45
2023-01-07T01:53:46.939Z,99914.14
2023-01-07T01:55:55.445Z,99909.84
2023-01-07T01:58:03.122Z,99903.42
2023-01-07T02:00:10.064Z,99904.45
2023-01-07T02:02:24.669Z,99901.52
2023-01-07T02:04:30.795Z,99899.80
2023-01-07T02:06:39.630Z,99896.61
2023-01-07T02:08:44.415Z,99894.89
2023-01-07T02:10:53.575Z,99892.45
2023-01-07T02:13:25.961Z,99892.29
2023-01-07T02:15:40.670Z,99888.59
2023-01-07T02:17:58.036Z,99888.08
2023-01-07T02:20:31.063Z,99887.77
2023-01-07T02:22:53.208Z,99888.45
2023-01-07T02:25:15.023Z,99888.86
2023-01-07T02:27:42.693Z,99891.34
2023-01-07T02:30:18.207Z,99888.05
2023-01-07T02:32:48.933Z,99888.25
2023-01-07T02:35:03.338Z,99887.52
2023-01-07T02:37:14.847Z,99882.81
2023-01-07T02:39:36.379Z,99879.77
2023-01-07T02:41:51.610Z,99876.69
2023-01-07T02:44:01.997Z,99877.38
2023-01-07T02:46:16.286Z,99877.71
2023-01-07T02:48:22.705Z,99875.29
2023-01-07T02:50:27.397Z,99875.09
2023-01-07T02:52:35.285Z,99873.61
2023-01-07T02:54:40.093Z,99869.93
2023-01-07T02:57:02.211Z,99870.94
2023-01-07T02:59:22.124Z,99866.05
2023-01-07T03:01:46.804Z,99867.64
2023-01-07T03:04:06.011Z,99861.98
2023-01-07T03:06:28.260Z,99865.84
2023-01-07T03:08:56.075Z,99866.88
2023-01-07T03:11:02.897Z,99867.98
2023-01-07T03:13:11.996Z,99869.13
2023-01-07T03:15:22.222Z,99869.35
2023-01-07T03:17:31.419Z,99872.32
2023-01-07T03:19:39.920Z,99875.20
2023-01-07T03:21:47.939Z,99875.91
2023-01-07T03:23:56.569Z,99878.27
2023-01-07T03:26:04.823Z,99874.16
2023-01-07T03:28:15.435Z,99870.89
2023-01-07T03:30:22.184Z,99871.64
2023-01-07T03:32:31.642Z,99869.77
2023-01-07T03:34:37.586Z,99870.20
2023-01-07T03:36:46.653Z,99869.09
2023-01-07T03:38:52.849Z,99867.70
2023-01-07T03:40:57.886Z,99863.67
2023-01-07T03:43:02.607Z,99864.73
2023-01-07T03:45:11.488Z,99863.24
2023-01-07T03:47:16.315Z,99862.66
2023-01-07T03:49:21.066Z,99859.01
2023-01-07T03:51:25.856Z,99862.59
2023-01-07T03:53:30.599Z,99861.56
2023-01-07T03:55:35.376Z,99861.79
2023-01-07T03:57:40.091Z,99863.02
2023-01-07T03:59:44.793Z,99859.52
2023-01-07T04:01:50.212Z,99856.73
2023-01-07T04:03:56.015Z,99856.80
2023-01-07T04:06:00.767Z,99860.13
2023-01-07T04:08:05.911Z,99856.19
2023-01-07T04:10:12.536Z,99851.77
2023-01-07T04:12:17.431Z,99852.79
2023-01-07T04:14:22.883Z,99854.88
2023-01-07T04:16:27.984Z,99850.61
2023-01-07T04:18:33.304Z,99848.30
2023-01-07T04:20:38.376Z,99844.55
2023-01-07T04:22:43.120Z,99847.69
2023-01-07T04:24:47.865Z,99845.19
2023-01-07T04:26:52.811Z,99843.48
2023-01-07T04:28:58.032Z,99839.47
2023-01-07T04:31:03.228Z,99840.48
2023-01-07T04:33:08.279Z,99840.95
2023-01-07T04:35:13.024Z,99834.95
2023-01-07T04:37:17.767Z,99835.45
2023-01-07T04:39:22.788Z,99830.17
2023-01-07T04:41:28.006Z,99836.34
2023-01-07T04:43:32.795Z,99838.70
2023-01-07T04:45:37.560Z,99831.91
2023-01-07T04:47:42.686Z,99833.25
2023-01-07T04:49:48.048Z,99827.03
2023-01-07T04:51:54.428Z,99825.87
2023-01-07T04:54:02.678Z,99829.36
2023-01-07T04:56:08.406Z,99825.23
2023-01-07T04:58:13.436Z,99826.09
2023-01-07T05:00:18.704Z,99824.30
2023-01-07T05:02:24.457Z,99827.65
2023-01-07T05:04:30.595Z,99829.52
2023-01-07T05:06:35.516Z,99830.70
2023-01-07T05:08:40.425Z,99831.73
2023-01-07T05:10:45.450Z,99831.60
2023-01-07T05:12:50.462Z,99827.40
2023-01-07T05:14:55.553Z,99824.45
2023-01-07T05:17:00.390Z,99827.08
2023-01-07T05:19:06.175Z,99827.59
2023-01-07T05:21:14.132Z,99823.94
2023-01-07T05:23:18.915Z,99828.67
2023-01-07T05:25:23.712Z,99826.58
2023-01-07T05:27:28.945Z,99818.38
2023-01-07T05:29:34.286Z,99815.30
2023-01-07T05:31:39.026Z,99813.27
2023-01-07T05:33:43.876Z,99809.68
2023-01-07T05:35:50.166Z,99810.65
2023-01-07T05:37:55.387Z,99811.17
2023-01-07T05:40:00.368Z,99811.70
2023-01-07T05:42:05.314Z,99810.13
2023-01-07T05:44:10.173Z,99812.98
2023-01-07T05:46:14.888Z,99815.00
2023-01-07T05:48:19.578Z,99810.06
2023-01-07T05:50:24.340Z,99804.82
2023-01-07T05:52:29.070Z,99807.02
2023-01-07T05:54:33.849Z,99801.40
2023-01-07T05:56:39.022Z,99799.56
2023-01-07T05:58:43.788Z,99801.52
2023-01-07T06:00:48.475Z,99801.48
2023-01-07T06:02:53.069Z,99799.10
2023-01-07T06:04:57.741Z,99796.44
2023-01-07T06:07:02.474Z,99799.67
2023-01-07T06:09:07.622Z,99798.19
2023-01-07T06:11:12.416Z,99797.33
2023-01-07T06:13:17.028Z,99795.70
2023-01-07T06:15:21.771Z,99796.92
2023-01-07T06:17:26.763Z,99797.31
2023-01-07T06:19:31.605Z,99796.13
2023-01-07T06:21:36.282Z,99798.20
2023-01-07T06:23:44.024Z,99791.74
2023-01-07T06:25:48.758Z,99792.94
2023-01-07T06:27:53.444Z,99796.23
2023-01-07T06:29:58.135Z,99795.73
2023-01-07T06:32:02.811Z,99797.73
2023-01-07T06:34:07.490Z,99797.69
2023-01-07T06:36:12.318Z,99795.84
2023-01-07T06:38:17.032Z,99800.47
2023-01-07T06:40:21.687Z,99804.06
2023-01-07T06:42:26.391Z,99804.64
2023-01-07T06:44:31.010Z,99810.74
2023-01-07T06:46:35.836Z,99809.70
2023-01-07T06:48:40.629Z,99811.45
2023-01-07T06:50:45.731Z,99813.34
2023-01-07T06:52:50.377Z,99804.48
2023-01-07T06:54:55.026Z,99808.98
2023-01-07T06:56:59.680Z,99810.10
2023-01-07T06:59:07.509Z,99810.73
2023-01-07T07:01:12.830Z,99808.82
2023-01-07T07:03:17.696Z,99812.51
2023-01-07T07:05:22.471Z,99817.09
2023-01-07T07:07:27.147Z,99813.98
2023-01-07T07:09:31.858Z,99810.02
2023-01-07T07:11:36.711Z,99810.55
2023-01-07T07:13:41.366Z,99818.98
2023-01-07T07:15:46.204Z,99815.88
2023-01-07T07:17:50.863Z,99820.75
2023-01-07T07:19:55.492Z,99821.12
2023-01-07T07:22:00.293Z,99820.45
2023-01-07T07:24:05.592Z,99822.34
2023-01-07T07:26:10.248Z,99820.39
2023-01-07T07:28:14.912Z,99823.15
2023-01-07T07:30:19.631Z,99821.93
2023-01-07T07:32:24.421Z,99817.82
2023-01-07T07:34:29.557Z,99815.41
2023-01-07T07:36:34.383Z,99814.90
2023-01-07T07:38:42.072Z,99816.10
2023-01-07T07:40:46.756Z,99817.52
2023-01-07T07:43:10.436Z,99819.48
2023-01-07T07:45:17.552Z,99813.15
2023-01-07T07:47:22.458Z,99813.10
2023-01-07T07:49:27.281Z,99807.63
2023-01-07T07:51:32.391Z,99804.85
2023-01-07T07:53:37.415Z,99806.59
2023-01-07T07:55:42.145Z,99808.27
2023-01-07T07:57:49.837Z,99810.95
2023-01-07T07:59:54.556Z,99807.17
2023-01-07T08:01:59.364Z,99806.86
2023-01-07T08:04:04.118Z,99800.23
2023-01-07T08:06:09.907Z,99803.66
2023-01-07T08:08:16.346Z,99801.08
2023-01-07T08:10:21.149Z,99801.81
2023-01-07T08:12:25.854Z,99803.27
2023-01-07T08:14:30.726Z,99800.19
2023-01-07T08:16:35.520Z,99803.10
2023-01-07T08:18:40.321Z,99804.71
2023-01-07T08:20:45.108Z,99798.55
2023-01-07T08:22:49.843Z,99799.73
2023-01-07T08:24:54.567Z,99792.84
2023-01-07T08:26:59.264Z,99789.83
2023-01-07T08:29:04.105Z,99786.52
2023-01-07T08:31:09.564Z,99788.97
2023-01-07T08:33:17.906Z,99792.00
2023-01-07T08:35:23.227Z,99789.82
2023-01-07T08:37:30.702Z,99790.66
2023-01-07T08:39:35.610Z,99787.40
2023-01-07T08:41:40.327Z,99785.38
2023-01-07T08:43:45.105Z,99785.70
2023-01-07T08:45:51.585Z,99779.44
2023-01-07T08:47:56.412Z,99782.70
2023-01-07T08:50:01.108Z,99781.91
2023-01-07T08:52:06.406Z,99783.48
2023-01-07T08:54:11.189Z,99780.26
2023-01-07T08:56:16.001Z,99778.33
2023-01-07T08:58:20.799Z,99776.31
2023-01-07T09:00:25.924Z,99773.54
2023-01-07T09:02:30.643Z,99774.42
2023-01-07T09:04:35.408Z,99774.36
2023-01-07T09:06:40.217Z,99770.83
2023-01-07T09:08:44.931Z,99768.60
2023-01-07T09:10:49.800Z,99768.61
2023-01-07T09:12:54.479Z,99769.61
2023-01-07T09:14:59.199Z,99769.75
2023-01-07T09:17:03.960Z,99766.55
2023-01-07T09:19:08.684Z,99767.77
2023-01-07T09:21:13.462Z,99769.50
2023-01-07T09:23:18.199Z,99766.91
2023-01-07T09:25:22.997Z,99763.34
2023-01-07T09:27:28.191Z,99766.19
2023-01-07T09:29:32.989Z,99764.89
2023-01-07T09:31:37.961Z,99768.70
2023-01-07T09:33:42.951Z,99769.79
2023-01-07T09:35:48.089Z,99769.65
2023-01-07T09:37:52.840Z,99770.72
2023-01-07T09:39:57.645Z,99767.48
2023-01-07T09:42:12.630Z,99768.34
2023-01-07T09:44:25.517Z,99762.34
2023-01-07T09:46:31.185Z,99758.55
2023-01-07T09:48:40.474Z,99756.45
2023-01-07T09:50:50.666Z,99751.85
2023-01-07T09:53:00.224Z,99750.55
2023-01-07T09:55:16.299Z,99745.48
2023-01-07T09:57:21.314Z,99750.17
2023-01-07T09:59:26.184Z,99745.35
2023-01-07T10:01:37.090Z,99742.78
2023-01-07T10:04:02.840Z,99732.59
2023-01-07T10:06:12.906Z,99728.34
2023-01-07T10:08:29.086Z,99721.00
2023-01-07T10:10:44.820Z,99716.42
2023-01-07T10:12:55.043Z,99712.59
2023-01-07T10:15:20.698Z,99707.17
2023-01-07T10:17:37.416Z,99701.66
2023-01-07T10:19:49.607Z,99698.48
2023-01-07T10:21:58.573Z,99691.67
2023-01-07T10:24:09.581Z,99690.56
2023-01-07T10:26:25.102Z,99688.42
2023-01-07T10:28:36.002Z,99690.63
2023-01-07T10:30:46.105Z,99683.75
2023-01-07T10:32:58.854Z,99683.75
2023-01-07T10:35:04.548Z,99681.11
2023-01-07T10:37:16.466Z,99673.54
2023-01-07T10:39:27.892Z,99674.52
2023-01-07T10:41:42.220Z,99669.00
2023-01-07T10:44:07.024Z,99674.50
2023-01-07T10:46:24.094Z,99669.30
2023-01-07T10:48:47.239Z,99670.02
2023-01-07T10:51:02.022Z,99668.06
2023-01-07T10:53:19.385Z,99664.39
2023-01-07T10:55:42.602Z,99658.93
2023-01-07T10:57:49.710Z,99650.91
2023-01-07T10:59:57.388Z,99646.56
2023-01-07T11:02:02.937Z,99637.67
2023-01-07T11:04:14.748Z,99635.42
2023-01-07T11:06:26.593Z,99633.36
2023-01-07T11:08:38.362Z,99630.27
2023-01-07T11:10:43.670Z,99628.12
2023-01-07T11:12:51.096Z,99621.99
2023-01-07T11:14:58.717Z,99617.80
2023-01-07T11:17:13.796Z,99613.60
2023-01-07T11:19:18.567Z,99609.17
2023-01-07T11:21:43.815Z,99606.40
2023-01-07T11:23:49.186Z,99598.52
2023-01-07T11:25:54.707Z,99592.48
2023-01-07T11:28:03.417Z,99590.82
2023-01-07T11:30:21.560Z,99587.22
2023-01-07T11:32:30.957Z,99581.35
2023-01-07T11:34:37.842Z,99578.09
2023-01-07T11:36:43.663Z,99575.32
2023-01-07T11:38:48.718Z,99569.92
2023-01-07T11:40:59.958Z,99563.20
2023-01-07T11:43:22.838Z,99558.34
2023-01-07T11:45:31.790Z,99556.41
2023-01-07T11:47:39.877Z,99551.10
2023-01-07T11:49:45.985Z,99548.11
2023-01-07T11:51:50.695Z,99546.91
2023-01-07T11:53:59.202Z,99546.55
2023-01-07T11:56:06.246Z,99538.13
2023-01-07T11:58:29.736Z,99536.94
2023-01-07T12:00:35.221Z,99533.57
2023-01-07T12:02:40.025Z,99526.79
2023-01-07T12:04:44.799Z,99524.08
2023-01-07T12:06:52.039Z,99516.30
2023-01-07T12:09:02.891Z,99512.86
2023-01-07T12:11:09.982Z,99513.80
2023-01-07T12:13:21.885Z,99507.38
2023-01-07T12:15:29.371Z,99501.94
2023-01-07T12:17:35.819Z,99497.45
2023-01-07T12:20:13.216Z,99491.52
2023-01-07T12:22:29.094Z,99491.84
2023-01-07T12:25:11.267Z,99488.73
2023-01-07T12:27:28.773Z,99482.36
2023-01-07T12:29:45.541Z,99479.94
2023-01-07T12:32:04.103Z,99477.71
2023-01-07T12:34:16.282Z,99479.45
2023-01-07T12:36:27.738Z,99475.91
2023-01-07T12:38:40.406Z,99474.54
2023-01-07T12:40:51.651Z,99470.66
2023-01-07T12:43:02.342Z,99471.70
2023-01-07T12:45:14.746Z,99467.23
2023-01-07T12:47:30.419Z,99463.28
2023-01-07T12:49:43.426Z,99461.08
2023-01-07T12:51:54.184Z,99456.52
2023-01-07T12:54:05.685Z,99450.48
2023-01-07T12:56:16.165Z,99448.09
2023-01-07T12:58:31.254Z,99446.88
2023-01-07T13:00:41.837Z,99439.23
2023-01-07T13:02:53.310Z,99440.84
2023-01-07T13:05:10.462Z,99437.38
2023-01-07T13:07:21.213Z,99434.39
2023-01-07T13:09:37.778Z,99431.90
2023-01-07T13:11:46.199Z,99429.83
2023-01-07T13:13:54.612Z,99431.09
2023-01-07T13:15:59.441Z,99427.94
2023-01-07T13:18:15.155Z,99425.33
2023-01-07T13:20:33.103Z,99428.98
2023-01-07T13:22:41.184Z,99430.53
2023-01-07T13:24:59.874Z,99427.70
2023-01-07T13:27:16.139Z,99427.39
2023-01-07T13:29:29.840Z,99420.48
2023-01-07T13:32:00.070Z,99421.73
2023-01-07T13:34:18.207Z,99417.13
2023-01-07T13:36:34.743Z,99417.42
2023-01-07T13:39:00.356Z,99419.25
2023-01-07T13:41:23.686Z,99414.70
2023-01-07T13:43:47.570Z,99419.29
2023-01-07T13:45:57.046Z,99421.90
2023-01-07T13:48:05.445Z,99423.36
2023-01-07T13:50:20.553Z,99419.58
2023-01-07T13:52:27.882Z,99416.02
2023-01-07T13:54:55.786Z,99411.73
2023-01-07T13:57:20.492Z,99412.57
2023-01-07T13:59:46.945Z,99410.04
2023-01-07T14:02:24.291Z,99410.73
2023-01-07T14:05:05.668Z,99410.56
2023-01-07T14:07:11.466Z,99413.02
2023-01-07T14:09:38.378Z,99413.07
2023-01-07T14:12:01.728Z,99415.05
2023-01-07T14:14:13.274Z,99413.83
2023-01-07T14:16:26.637Z,99412.89
2023-01-07T14:19:01.956Z,99416.15
2023-01-07T14:21:17.498Z,99417.06
2023-01-07T14:23:29.603Z,99415.19
2023-01-07T14:25:53.569Z,99412.89
2023-01-07T14:28:29.811Z,99408.17
2023-01-07T14:30:43.461Z,99409.08
2023-01-07T14:32:55.091Z,99405.31
2023-01-07T14:35:03.375Z,99401.65
2023-01-07T14:37:16.762Z,99403.34
2023-01-07T14:39:35.941Z,99406.39
2023-01-07T14:42:19.996Z,99401.72
2023-01-07T14:44:31.711Z,99396.84
2023-01-07T14:46:51.158Z,99395.70
2023-01-07T14:49:19.147Z,99394.51
2023-01-07T14:51:51.656Z,99398.99
2023-01-07T14:54:33.221Z,99400.43
2023-01-07T14:56:49.183Z,99400.39
2023-01-07T14:59:08.040Z,99399.21
2023-01-07T15:01:43.216Z,99400.36
2023-01-07T15:03:57.225Z,99398.10
2023-01-07T15:06:25.899Z,99395.59
2023-01-07T15:08:39.860Z,99393.46
2023-01-07T15:10:47.040Z,99392.34
2023-01-07T15:12:56.640Z,99388.30
2023-01-07T15:15:06.705Z,99387.18
2023-01-07T15:17:14.320Z,99384.48
2023-01-07T15:19:21.834Z,99391.80
2023-01-07T15:21:37.337Z,99389.98
2023-01-07T15:23:54.225Z,99394.39
2023-01-07T15:26:06.068Z,99395.99
2023-01-07T15:28:18.057Z,99389.23
2023-01-07T15:30:38.301Z,99388.46
2023-01-07T15:32:50.870Z,99389.27
2023-01-07T15:34:55.813Z,99395.35
2023-01-07T15:37:02.958Z,99393.56
2023-01-07T15:39:16.047Z,99391.77
2023-01-07T15:41:29.702Z,99387.85
2023-01-07T15:43:35.004Z,99381.47
2023-01-07T15:45:39.913Z,99387.78
2023-01-07T15:47:44.701Z,99389.54
2023-01-07T15:49:49.356Z,99391.98
2023-01-07T15:52:01.313Z,99387.83
2023-01-07T15:54:09.827Z,99388.09
2023-01-07T15:56:16.720Z,99382.91
2023-01-07T15:58:26.851Z,99380.19
2023-01-07T16:00:31.690Z,99383.04
2023-01-07T16:02:42.762Z,99381.89
2023-01-07T16:04:50.595Z,99378.96
2023-01-07T16:07:00.623Z,99379.30
2023-01-07T16:09:21.392Z,99380.80
2023-01-07T16:11:28.037Z,99378.50
2023-01-07T16:13:33.309Z,99378.14
2023-01-07T16:15:39.186Z,99380.15
2023-01-07T16:17:53.618Z,99379.39
2023-01-07T16:20:23.931Z,99377.84
2023-01-07T16:22:28.974Z,99378.48
2023-01-07T16:24:33.876Z,99372.22
2023-01-07T16:26:42.201Z,99375.95
2023-01-07T16:28:49.756Z,99375.56
2023-01-07T16:30:55.835Z,99376.68
2023-01-07T16:33:00.925Z,99371.22
2023-01-07T16:35:08.511Z,99372.25
2023-01-07T16:37:15.808Z,99368.38
2023-01-07T16:39:24.088Z,99369.55
2023-01-07T16:41:30.817Z,99367.61
2023-01-07T16:43:44.744Z,99369.73
2023-01-07T16:46:09.614Z,99367.09
2023-01-07T16:48:21.419Z,99373.23
2023-01-07T16:50:37.401Z,99370.57
2023-01-07T16:52:51.161Z,99369.71
2023-01-07T16:54:55.910Z,99364.69
2023-01-07T16:57:02.728Z,99368.45
2023-01-07T16:59:13.954Z,99363.08
2023-01-07T17:01:21.029Z,99363.93
2023-01-07T17:03:27.157Z,99364.56
2023-01-07T17:05:32.616Z,99359.06
2023-01-07T17:07:38.968Z,99361.15
2023-01-07T17:09:43.849Z,99358.23
2023-01-07T17:11:50.939Z,99357.16
2023-01-07T17:13:56.102Z,99357.62
2023-01-07T17:16:21.761Z,99351.83
2023-01-07T17:18:30.593Z,99354.84
2023-01-07T17:20:44.513Z,99349.85
2023-01-07T17:22:50.057Z,99351.88
2023-01-07T17:24:59.213Z,99353.02
2023-01-07T17:27:05.469Z,99353.13
2023-01-07T17:29:16.069Z,99354.50
2023-01-07T17:31:21.263Z,99352.44
2023-01-07T17:33:26.418Z,99351.30
2023-01-07T17:35:31.150Z,99353.38
2023-01-07T17:37:36.240Z,99350.14
2023-01-07T17:39:40.959Z,99352.89
2023-01-07T17:41:45.612Z,99349.27
2023-01-07T17:43:50.334Z,99353.46
2023-01-07T17:45:55.024Z,99354.09
2023-01-07T17:48:00.078Z,99354.77
2023-01-07T17:50:05.377Z,99351.22
2023-01-07T17:52:11.157Z,99350.30
2023-01-07T17:54:21.528Z,99358.17
2023-01-07T17:56:26.641Z,99359.15
2023-01-07T17:58:33.901Z,99366.13
2023-01-07T18:00:38.615Z,99361.59
2023-01-07T18:02:43.708Z,99363.66
2023-01-07T18:04:48.377Z,99365.93
2023-01-07T18:06:53.061Z,99369.29
2023-01-07T18:08:57.759Z,99372.27
2023-01-07T18:11:02.448Z,99372.11
2023-01-07T18:13:07.400Z,99373.55
2023-01-07T18:15:23.622Z,99376.80
2023-01-07T18:17:28.762Z,99374.73
2023-01-07T18:19:33.390Z,99378.46
2023-01-07T18:21:38.094Z,99375.63
2023-01-07T18:23:42.780Z,99374.89
2023-01-07T18:25:47.815Z,99374.19
2023-01-07T18:27:52.556Z,99373.84
2023-01-07T18:29:57.435Z,99370.78
2023-01-07T18:32:03.896Z,99371.82
2023-01-07T18:34:09.023Z,99366.16
2023-01-07T18:36:13.804Z,99361.25
2023-01-07T18:38:18.527Z,99359.60
2023-01-07T18:40:23.398Z,99356.01
2023-01-07T18:42:28.240Z,99354.73
2023-01-07T18:44:32.951Z,99359.70
2023-01-07T18:46:38.956Z,99360.45
2023-01-07T18:48:43.659Z,99359.44
2023-01-07T18:50:49.909Z,99354.30
2023-01-07T18:52:58.421Z,99353.83
2023-01-07T18:55:03.323Z,99352.52
2023-01-07T18:57:08.149Z,99353.55
2023-01-07T18:59:13.166Z,99350.73
2023-01-07T19:01:18.063Z,99353.06
2023-01-07T19:03:22.822Z,99352.44
2023-01-07T19:05:28.460Z,99352.03
2023-01-07T19:07:33.185Z,99351.20
2023-01-07T19:09:37.879Z,99352.71
2023-01-07T19:11:42.602Z,99347.41
2023-01-07T19:13:47.343Z,99350.20
2023-01-07T19:15:53.260Z,99345.65
2023-01-07T19:17:57.985Z,99353.11
2023-01-07T19:20:04.170Z,99351.77
2023-01-07T19:22:12.249Z,99348.61
2023-01-07T19:24:17.273Z,99347.82
2023-01-07T19:26:22.165Z,99344.00
2023-01-07T19:28:29.739Z,99344.48
2023-01-07T19:30:34.444Z,99340.86
2023-01-07T19:32:39.573Z,99343.94
2023-01-07T19:34:44.317Z,99345.86
2023-01-07T19:36:49.014Z,99342.88
2023-01-07T19:38:57.075Z,99339.41
2023-01-07T19:41:01.827Z,99336.62
2023-01-07T19:43:06.515Z,99340.02
2023-01-07T19:45:11.923Z,99341.80
2023-01-07T19:47:16.611Z,99345.77
2023-01-07T19:49:21.335Z,99344.07
2023-01-07T19:51:26.453Z,99344.54
2023-01-07T19:53:32.900Z,99346.67
2023-01-07T19:55:37.571Z,99348.87
2023-01-07T19:57:42.948Z,99349.74
2023-01-07T19:59:47.849Z,99341.00
2023-01-07T20:01:52.606Z,99340.02
2023-01-07T20:03:58.832Z,99336.89
2023-01-07T20:06:05.106Z,99340.30
2023-01-07T20:08:10.018Z,99338.80
2023-01-07T20:10:14.816Z,99340.08
2023-01-07T20:12:19.585Z,99339.40
2023-01-07T20:14:24.366Z,99334.36
2023-01-07T20:16:29.164Z,99336.57
2023-01-07T20:18:38.587Z,99336.34
2023-01-07T20:20:43.491Z,99332.45
2023-01-07T20:22:48.340Z,99328.10
2023-01-07T20:24:53.269Z,99328.77
2023-01-07T20:26:57.927Z,99324.49
2023-01-07T20:29:02.705Z,99321.36
2023-01-07T20:31:09.225Z,99326.11
2023-01-07T20:33:14.021Z,99330.98
2023-01-07T20:35:18.819Z,99329.63
2023-01-07T20:37:23.521Z,99329.41
2023-01-07T20:39:28.285Z,99328.36
2023-01-07T20:41:34.170Z,99325.98
2023-01-07T20:43:39.592Z,99321.11
2023-01-07T20:45:44.428Z,99317.35
2023-01-07T20:47:49.138Z,99315.69
2023-01-07T20:49:53.833Z,99308.34
2023-01-07T20:51:58.544Z,99308.17
2023-01-07T20:54:03.875Z,99311.90
2023-01-07T20:56:09.712Z,99309.50
2023-01-07T20:58:14.574Z,99308.93
2023-01-07T21:00:20.088Z,99304.14
2023-01-07T21:02:25.101Z,99304.80
2023-01-07T21:04:29.955Z,99301.23
2023-01-07T21:06:34.822Z,99302.31
2023-01-07T21:08:39.895Z,99303.39
2023-01-07T21:10:44.637Z,99299.36
2023-01-07T21:12:49.653Z,99300.14
2023-01-07T21:14:54.914Z,99297.95
2023-01-07T21:16:59.970Z,99298.91
2023-01-07T21:19:04.731Z,99304.15
2023-01-07T21:21:14.091Z,99308.86
2023-01-07T21:23:19.084Z,99309.48
2023-01-07T21:25:23.927Z,99307.71
2023-01-07T21:27:28.682Z,99297.42
2023-01-07T21:29:33.368Z,99290.90
2023-01-07T21:31:38.219Z,99288.70
2023-01-07T21:33:43.574Z,99288.52
2023-01-07T21:35:48.291Z,99289.75
2023-01-07T21:37:55.305Z,99293.95
2023-01-07T21:40:00.004Z,99296.84
2023-01-07T21:42:05.375Z,99296.36
2023-01-07T21:44:12.068Z,99292.95
2023-01-07T21:46:17.356Z,99296.00
2023-01-07T21:48:22.109Z,99296.10
2023-01-07T21:50:26.789Z,99295.34
2023-01-07T21:52:33.868Z,99290.56
2023-01-07T21:54:38.716Z,99292.23
2023-01-07T21:56:43.490Z,99297.05
2023-01-07T21:58:48.691Z,99301.96
2023-01-07T22:00:56.242Z,99296.88
2023-01-07T22:03:01.152Z,99301.27
2023-01-07T22:05:06.986Z,99300.14
2023-01-07T22:07:14.467Z,99299.74
2023-01-07T22:09:19.104Z,99298.65
2023-01-07T22:11:24.368Z,99297.98
2023-01-07T22:13:30.252Z,99294.05
2023-01-07T22:15:34.896Z,99291.92
2023-01-07T22:17:39.581Z,99298.41
2023-01-07T22:19:45.153Z,99302.22
2023-01-07T22:21:50.507Z,99294.98
2023-01-07T22:23:55.216Z,99294.94
2023-01-07T22:26:05.508Z,99291.95
2023-01-07T22:28:11.274Z,99294.87
2023-01-07T22:30:17.482Z,99293.89
2023-01-07T22:32:22.229Z,99293.99
2023-01-07T22:34:27.047Z,99291.77
2023-01-07T22:36:36.197Z,99289.00
2023-01-07T22:38:41.416Z,99285.60
2023-01-07T22:40:46.248Z,99281.42
2023-01-07T22:42:57.345Z,99286.34
2023-01-07T22:45:08.647Z,99285.66
2023-01-07T22:47:15.532Z,99285.19
2023-01-07T22:49:22.783Z,99285.42
2023-01-07T22:51:34.390Z,99286.59
2023-01-07T22:53:39.305Z,99285.77
2023-01-07T22:55:44.141Z,99285.86
2023-01-07T22:57:49.279Z,99290.08
2023-01-07T22:59:54.111Z,99287.71
2023-01-07T23:01:58.930Z,99285.73
2023-01-07T23:04:04.111Z,99284.67
2023-01-07T23:06:10.230Z,99289.08
2023-01-07T23:08:15.104Z,99287.70
2023-01-07T23:10:19.851Z,99289.24
2023-01-07T23:12:24.554Z,99284.96
2023-01-07T23:14:30.691Z,99281.67
2023-01-07T23:16:36.857Z,99283.30
2023-01-07T23:18:41.542Z,99284.45
2023-01-07T23:20:46.194Z,99280.99
2023-01-07T23:22:51.104Z,99282.45
2023-01-07T23:24:55.787Z,99276.15
2023-01-07T23:27:00.557Z,99269.30
2023-01-07T23:29:05.378Z,99259.92
2023-01-07T23:31:10.193Z,99258.98
2023-01-07T23:33:14.924Z,99260.48
2023-01-07T23:35:19.649Z,99257.45
2023-01-07T23:37:24.716Z,99259.43
2023-01-07T23:39:29.429Z,99256.30
2023-01-07T23:41:34.586Z,99252.24
2023-01-07T23:43:39.716Z,99253.02
2023-01-07T23:45:44.591Z,99247.07
2023-01-07T23:47:49.303Z,99243.72
2023-01-07T23:49:54.063Z,99239.09
2023-01-07T23:51:59.203Z,99235.92
2023-01-07T23:54:03.983Z,99232.49
2023-01-07T23:56:10.151Z,99234.23
2023-01-07T23:58:14.864Z,99234.64
